sensor_id;sensor_type;location;lat;lon;timestamp;P1;durP1;ratioP1;P2;durP2;ratioP2
75261;SDS011;63859;51.064;4.580;2023-05-23T00:01:35;69.78;;;28.98;;
75261;SDS011;63859;51.064;4.580;2023-05-23T00:04:02;69.15;;;29.83;;
75261;SDS011;63859;51.064;4.580;2023-05-23T00:06:28;66.53;;;29.27;;
75261;SDS011;63859;51.064;4.580;2023-05-23T00:08:55;61.15;;;30.00;;
75261;SDS011;63859;51.064;4.580;2023-05-23T00:11:21;62.25;;;29.05;;
75261;SDS011;63859;51.064;4.580;2023-05-23T00:13:51;64.45;;;28.58;;
75261;SDS011;63859;51.064;4.580;2023-05-23T00:16:17;59.58;;;28.50;;
75261;SDS011;63859;51.064;4.580;2023-05-23T00:18:43;57.60;;;28.50;;
75261;SDS011;63859;51.064;4.580;2023-05-23T00:21:09;58.67;;;26.90;;
75261;SDS011;63859;51.064;4.580;2023-05-23T00:23:37;58.78;;;26.75;;
75261;SDS011;63859;51.064;4.580;2023-05-23T00:26:06;60.38;;;27.73;;
75261;SDS011;63859;51.064;4.580;2023-05-23T00:28:36;57.47;;;25.88;;
75261;SDS011;63859;51.064;4.580;2023-05-23T00:31:02;61.80;;;27.27;;
75261;SDS011;63859;51.064;4.580;2023-05-23T00:33:28;49.97;;;25.55;;
75261;SDS011;63859;51.064;4.580;2023-05-23T00:35:57;53.65;;;24.60;;
75261;SDS011;63859;51.064;4.580;2023-05-23T00:38:23;48.15;;;25.13;;
75261;SDS011;63859;51.064;4.580;2023-05-23T00:40:49;50.88;;;24.45;;
75261;SDS011;63859;51.064;4.580;2023-05-23T00:43:14;50.47;;;23.35;;
75261;SDS011;63859;51.064;4.580;2023-05-23T00:45:40;44.50;;;23.08;;
75261;SDS011;63859;51.064;4.580;2023-05-23T00:48:06;44.95;;;21.58;;
75261;SDS011;63859;51.064;4.580;2023-05-23T00:50:33;42.83;;;21.02;;
75261;SDS011;63859;51.064;4.580;2023-05-23T00:53:00;38.65;;;19.88;;
75261;SDS011;63859;51.064;4.580;2023-05-23T00:55:27;36.83;;;18.77;;
75261;SDS011;63859;51.064;4.580;2023-05-23T00:57:53;36.08;;;19.45;;
75261;SDS011;63859;51.064;4.580;2023-05-23T01:00:22;44.20;;;20.45;;
75261;SDS011;63859;51.064;4.580;2023-05-23T01:02:49;35.55;;;18.52;;
75261;SDS011;63859;51.064;4.580;2023-05-23T01:05:15;41.53;;;18.00;;
75261;SDS011;63859;51.064;4.580;2023-05-23T01:07:45;38.65;;;18.52;;
75261;SDS011;63859;51.064;4.580;2023-05-23T01:10:22;35.33;;;20.50;;
75261;SDS011;63859;51.064;4.580;2023-05-23T01:15:29;34.47;;;19.05;;
75261;SDS011;63859;51.064;4.580;2023-05-23T01:20:42;38.70;;;22.20;;
75261;SDS011;63859;51.064;4.580;2023-05-23T01:26:15;41.40;;;22.55;;
75261;SDS011;63859;51.064;4.580;2023-05-23T01:28:44;37.38;;;22.52;;
75261;SDS011;63859;51.064;4.580;2023-05-23T01:31:11;39.13;;;21.88;;
75261;SDS011;63859;51.064;4.580;2023-05-23T01:33:39;34.78;;;21.83;;
75261;SDS011;63859;51.064;4.580;2023-05-23T01:36:06;36.95;;;22.40;;
75261;SDS011;63859;51.064;4.580;2023-05-23T01:38:33;32.38;;;21.00;;
75261;SDS011;63859;51.064;4.580;2023-05-23T01:40:58;34.08;;;21.20;;
75261;SDS011;63859;51.064;4.580;2023-05-23T01:43:24;33.63;;;21.05;;
75261;SDS011;63859;51.064;4.580;2023-05-23T01:45:51;30.98;;;19.15;;
75261;SDS011;63859;51.064;4.580;2023-05-23T01:48:18;25.05;;;17.30;;
75261;SDS011;63859;51.064;4.580;2023-05-23T01:50:45;27.88;;;16.58;;
75261;SDS011;63859;51.064;4.580;2023-05-23T01:53:11;30.05;;;17.30;;
75261;SDS011;63859;51.064;4.580;2023-05-23T01:55:39;27.23;;;15.48;;
75261;SDS011;63859;51.064;4.580;2023-05-23T01:58:06;26.20;;;16.02;;
75261;SDS011;63859;51.064;4.580;2023-05-23T02:00:33;23.38;;;15.18;;
75261;SDS011;63859;51.064;4.580;2023-05-23T02:02:59;24.17;;;14.52;;
75261;SDS011;63859;51.064;4.580;2023-05-23T02:05:24;32.88;;;15.85;;
75261;SDS011;63859;51.064;4.580;2023-05-23T02:07:51;24.33;;;14.45;;
75261;SDS011;63859;51.064;4.580;2023-05-23T02:10:17;23.98;;;14.80;;
75261;SDS011;63859;51.064;4.580;2023-05-23T02:12:44;28.80;;;15.30;;
75261;SDS011;63859;51.064;4.580;2023-05-23T02:15:10;22.98;;;15.25;;
75261;SDS011;63859;51.064;4.580;2023-05-23T02:17:35;22.58;;;14.20;;
75261;SDS011;63859;51.064;4.580;2023-05-23T02:20:03;26.05;;;14.45;;
75261;SDS011;63859;51.064;4.580;2023-05-23T02:22:30;29.42;;;15.18;;
75261;SDS011;63859;51.064;4.580;2023-05-23T02:24:56;26.77;;;14.32;;
75261;SDS011;63859;51.064;4.580;2023-05-23T02:27:21;27.20;;;14.05;;
75261;SDS011;63859;51.064;4.580;2023-05-23T02:29:47;28.77;;;14.90;;
75261;SDS011;63859;51.064;4.580;2023-05-23T02:32:20;27.48;;;15.27;;
75261;SDS011;63859;51.064;4.580;2023-05-23T02:34:46;29.33;;;16.27;;
75261;SDS011;63859;51.064;4.580;2023-05-23T02:37:14;29.58;;;16.27;;
75261;SDS011;63859;51.064;4.580;2023-05-23T02:39:40;33.13;;;16.75;;
75261;SDS011;63859;51.064;4.580;2023-05-23T02:42:07;27.65;;;16.27;;
75261;SDS011;63859;51.064;4.580;2023-05-23T02:44:33;32.47;;;15.57;;
75261;SDS011;63859;51.064;4.580;2023-05-23T02:46:58;30.05;;;16.63;;
75261;SDS011;63859;51.064;4.580;2023-05-23T02:49:24;27.92;;;16.13;;
75261;SDS011;63859;51.064;4.580;2023-05-23T02:51:50;29.52;;;18.08;;
75261;SDS011;63859;51.064;4.580;2023-05-23T02:54:16;34.83;;;17.85;;
75261;SDS011;63859;51.064;4.580;2023-05-23T02:56:41;35.75;;;19.58;;
75261;SDS011;63859;51.064;4.580;2023-05-23T02:59:08;43.40;;;20.70;;
75261;SDS011;63859;51.064;4.580;2023-05-23T03:01:34;39.78;;;20.48;;
75261;SDS011;63859;51.064;4.580;2023-05-23T03:04:00;42.78;;;21.25;;
75261;SDS011;63859;51.064;4.580;2023-05-23T03:06:25;47.08;;;22.23;;
75261;SDS011;63859;51.064;4.580;2023-05-23T03:08:51;44.65;;;23.17;;
75261;SDS011;63859;51.064;4.580;2023-05-23T03:11:17;40.95;;;22.52;;
75261;SDS011;63859;51.064;4.580;2023-05-23T03:13:42;47.58;;;21.95;;
75261;SDS011;63859;51.064;4.580;2023-05-23T03:16:08;55.67;;;22.80;;
75261;SDS011;63859;51.064;4.580;2023-05-23T03:18:35;49.20;;;21.75;;
75261;SDS011;63859;51.064;4.580;2023-05-23T03:21:01;44.40;;;23.35;;
75261;SDS011;63859;51.064;4.580;2023-05-23T03:23:27;50.38;;;23.60;;
75261;SDS011;63859;51.064;4.580;2023-05-23T03:25:53;52.30;;;24.20;;
75261;SDS011;63859;51.064;4.580;2023-05-23T03:28:18;42.67;;;21.48;;
75261;SDS011;63859;51.064;4.580;2023-05-23T03:30:44;44.42;;;20.38;;
75261;SDS011;63859;51.064;4.580;2023-05-23T03:33:10;35.53;;;18.13;;
75261;SDS011;63859;51.064;4.580;2023-05-23T03:35:36;27.85;;;13.80;;
75261;SDS011;63859;51.064;4.580;2023-05-23T03:38:02;29.73;;;13.23;;
75261;SDS011;63859;51.064;4.580;2023-05-23T03:40:27;26.20;;;12.20;;
75261;SDS011;63859;51.064;4.580;2023-05-23T03:43:06;22.38;;;11.48;;
75261;SDS011;63859;51.064;4.580;2023-05-23T03:45:33;24.98;;;12.68;;
75261;SDS011;63859;51.064;4.580;2023-05-23T03:47:58;25.88;;;12.82;;
75261;SDS011;63859;51.064;4.580;2023-05-23T03:50:25;30.10;;;12.55;;
75261;SDS011;63859;51.064;4.580;2023-05-23T03:52:51;20.25;;;11.32;;
75261;SDS011;63859;51.064;4.580;2023-05-23T03:55:17;20.95;;;11.50;;
75261;SDS011;63859;51.064;4.580;2023-05-23T03:57:46;21.98;;;11.32;;
75261;SDS011;63859;51.064;4.580;2023-05-23T04:00:13;21.55;;;10.93;;
75261;SDS011;63859;51.064;4.580;2023-05-23T04:02:39;18.55;;;10.88;;
75261;SDS011;63859;51.064;4.580;2023-05-23T04:05:05;20.40;;;11.32;;
75261;SDS011;63859;51.064;4.580;2023-05-23T04:07:31;21.77;;;11.02;;
75261;SDS011;63859;51.064;4.580;2023-05-23T04:10:01;19.83;;;10.73;;
75261;SDS011;63859;51.064;4.580;2023-05-23T04:12:28;23.35;;;10.43;;
75261;SDS011;63859;51.064;4.580;2023-05-23T04:14:57;19.77;;;10.32;;
75261;SDS011;63859;51.064;4.580;2023-05-23T04:17:23;21.35;;;10.02;;
75261;SDS011;63859;51.064;4.580;2023-05-23T04:19:49;17.67;;;10.40;;
75261;SDS011;63859;51.064;4.580;2023-05-23T04:22:16;19.80;;;10.55;;
75261;SDS011;63859;51.064;4.580;2023-05-23T04:24:42;22.55;;;9.63;;
75261;SDS011;63859;51.064;4.580;2023-05-23T04:27:08;19.98;;;9.85;;
75261;SDS011;63859;51.064;4.580;2023-05-23T04:29:33;19.92;;;9.70;;
75261;SDS011;63859;51.064;4.580;2023-05-23T04:32:00;21.15;;;10.30;;
75261;SDS011;63859;51.064;4.580;2023-05-23T04:34:26;20.08;;;9.57;;
75261;SDS011;63859;51.064;4.580;2023-05-23T04:36:52;24.30;;;9.18;;
75261;SDS011;63859;51.064;4.580;2023-05-23T04:39:18;19.73;;;9.48;;
75261;SDS011;63859;51.064;4.580;2023-05-23T04:41:44;18.67;;;9.68;;
75261;SDS011;63859;51.064;4.580;2023-05-23T04:44:10;20.02;;;10.10;;
75261;SDS011;63859;51.064;4.580;2023-05-23T04:46:38;18.17;;;9.48;;
75261;SDS011;63859;51.064;4.580;2023-05-23T04:49:07;18.33;;;8.90;;
75261;SDS011;63859;51.064;4.580;2023-05-23T04:51:34;20.10;;;9.40;;
75261;SDS011;63859;51.064;4.580;2023-05-23T04:54:00;18.50;;;10.45;;
75261;SDS011;63859;51.064;4.580;2023-05-23T04:56:26;22.00;;;10.80;;
75261;SDS011;63859;51.064;4.580;2023-05-23T04:58:53;24.45;;;11.27;;
75261;SDS011;63859;51.064;4.580;2023-05-23T05:01:18;23.73;;;13.15;;
75261;SDS011;63859;51.064;4.580;2023-05-23T05:03:44;25.67;;;12.98;;
75261;SDS011;63859;51.064;4.580;2023-05-23T05:06:12;40.63;;;14.13;;
75261;SDS011;63859;51.064;4.580;2023-05-23T05:08:38;31.33;;;15.13;;
75261;SDS011;63859;51.064;4.580;2023-05-23T05:11:04;33.75;;;14.25;;
75261;SDS011;63859;51.064;4.580;2023-05-23T05:13:30;36.50;;;15.68;;
75261;SDS011;63859;51.064;4.580;2023-05-23T05:15:56;34.53;;;14.70;;
75261;SDS011;63859;51.064;4.580;2023-05-23T05:18:22;38.92;;;14.07;;
75261;SDS011;63859;51.064;4.580;2023-05-23T05:20:50;36.88;;;14.82;;
75261;SDS011;63859;51.064;4.580;2023-05-23T05:23:16;36.78;;;14.52;;
75261;SDS011;63859;51.064;4.580;2023-05-23T05:25:41;37.20;;;14.20;;
75261;SDS011;63859;51.064;4.580;2023-05-23T05:28:07;34.92;;;13.63;;
75261;SDS011;63859;51.064;4.580;2023-05-23T05:30:33;38.22;;;14.30;;
75261;SDS011;63859;51.064;4.580;2023-05-23T05:33:02;43.65;;;14.18;;
75261;SDS011;63859;51.064;4.580;2023-05-23T05:35:34;33.65;;;13.90;;
75261;SDS011;63859;51.064;4.580;2023-05-23T05:38:02;36.92;;;14.20;;
75261;SDS011;63859;51.064;4.580;2023-05-23T05:40:28;41.58;;;15.23;;
75261;SDS011;63859;51.064;4.580;2023-05-23T05:42:57;44.92;;;14.18;;
75261;SDS011;63859;51.064;4.580;2023-05-23T05:45:23;36.50;;;15.45;;
75261;SDS011;63859;51.064;4.580;2023-05-23T05:47:48;39.22;;;15.32;;
75261;SDS011;63859;51.064;4.580;2023-05-23T05:50:14;31.02;;;13.57;;
75261;SDS011;63859;51.064;4.580;2023-05-23T05:52:40;31.42;;;13.98;;
75261;SDS011;63859;51.064;4.580;2023-05-23T05:55:06;36.28;;;14.55;;
75261;SDS011;63859;51.064;4.580;2023-05-23T05:57:35;36.03;;;13.65;;
75261;SDS011;63859;51.064;4.580;2023-05-23T06:00:04;35.45;;;13.68;;
75261;SDS011;63859;51.064;4.580;2023-05-23T06:02:40;46.35;;;13.60;;
75261;SDS011;63859;51.064;4.580;2023-05-23T06:05:13;36.72;;;13.40;;
75261;SDS011;63859;51.064;4.580;2023-05-23T06:07:40;39.70;;;13.55;;
75261;SDS011;63859;51.064;4.580;2023-05-23T06:10:07;38.15;;;12.18;;
75261;SDS011;63859;51.064;4.580;2023-05-23T06:12:34;33.45;;;12.27;;
75261;SDS011;63859;51.064;4.580;2023-05-23T06:14:59;42.97;;;12.48;;
75261;SDS011;63859;51.064;4.580;2023-05-23T06:17:26;32.42;;;11.45;;
75261;SDS011;63859;51.064;4.580;2023-05-23T06:19:52;28.20;;;10.77;;
75261;SDS011;63859;51.064;4.580;2023-05-23T06:22:18;32.78;;;11.05;;
75261;SDS011;63859;51.064;4.580;2023-05-23T06:24:43;37.15;;;10.60;;
75261;SDS011;63859;51.064;4.580;2023-05-23T06:27:10;30.17;;;10.60;;
75261;SDS011;63859;51.064;4.580;2023-05-23T06:29:36;26.92;;;9.55;;
75261;SDS011;63859;51.064;4.580;2023-05-23T06:32:02;22.83;;;8.40;;
75261;SDS011;63859;51.064;4.580;2023-05-23T06:34:28;27.73;;;7.70;;
75261;SDS011;63859;51.064;4.580;2023-05-23T06:36:54;19.13;;;7.57;;
75261;SDS011;63859;51.064;4.580;2023-05-23T06:39:19;15.98;;;6.70;;
75261;SDS011;63859;51.064;4.580;2023-05-23T06:41:45;16.73;;;6.25;;
75261;SDS011;63859;51.064;4.580;2023-05-23T06:44:11;15.63;;;6.15;;
75261;SDS011;63859;51.064;4.580;2023-05-23T06:46:37;13.60;;;5.45;;
75261;SDS011;63859;51.064;4.580;2023-05-23T06:49:03;14.50;;;5.07;;
75261;SDS011;63859;51.064;4.580;2023-05-23T06:51:28;16.58;;;5.22;;
75261;SDS011;63859;51.064;4.580;2023-05-23T06:53:55;15.80;;;4.90;;
75261;SDS011;63859;51.064;4.580;2023-05-23T06:56:21;12.93;;;4.47;;
75261;SDS011;63859;51.064;4.580;2023-05-23T06:58:47;14.13;;;4.70;;
75261;SDS011;63859;51.064;4.580;2023-05-23T07:01:13;14.18;;;5.03;;
75261;SDS011;63859;51.064;4.580;2023-05-23T07:03:39;12.20;;;4.53;;
75261;SDS011;63859;51.064;4.580;2023-05-23T07:06:07;19.13;;;5.00;;
75261;SDS011;63859;51.064;4.580;2023-05-23T07:08:32;9.10;;;4.35;;
75261;SDS011;63859;51.064;4.580;2023-05-23T07:10:58;17.80;;;5.35;;
75261;SDS011;63859;51.064;4.580;2023-05-23T07:13:24;15.20;;;5.03;;
75261;SDS011;63859;51.064;4.580;2023-05-23T07:15:50;11.05;;;4.80;;
75261;SDS011;63859;51.064;4.580;2023-05-23T07:20:47;20.23;;;5.82;;
75261;SDS011;63859;51.064;4.580;2023-05-23T07:23:12;15.02;;;5.38;;
75261;SDS011;63859;51.064;4.580;2023-05-23T07:25:40;19.58;;;5.60;;
75261;SDS011;63859;51.064;4.580;2023-05-23T07:28:06;17.73;;;5.63;;
75261;SDS011;63859;51.064;4.580;2023-05-23T07:30:32;17.73;;;5.10;;
75261;SDS011;63859;51.064;4.580;2023-05-23T07:32:58;18.30;;;5.93;;
75261;SDS011;63859;51.064;4.580;2023-05-23T07:35:24;22.80;;;6.30;;
75261;SDS011;63859;51.064;4.580;2023-05-23T07:37:51;15.05;;;5.75;;
75261;SDS011;63859;51.064;4.580;2023-05-23T07:40:17;15.98;;;5.63;;
75261;SDS011;63859;51.064;4.580;2023-05-23T07:42:43;18.77;;;5.88;;
75261;SDS011;63859;51.064;4.580;2023-05-23T07:45:09;26.92;;;6.80;;
75261;SDS011;63859;51.064;4.580;2023-05-23T07:47:35;21.60;;;6.60;;
75261;SDS011;63859;51.064;4.580;2023-05-23T07:50:01;15.65;;;6.25;;
75261;SDS011;63859;51.064;4.580;2023-05-23T07:52:29;17.88;;;6.35;;
75261;SDS011;63859;51.064;4.580;2023-05-23T07:54:56;20.17;;;7.07;;
75261;SDS011;63859;51.064;4.580;2023-05-23T07:57:22;18.08;;;6.47;;
75261;SDS011;63859;51.064;4.580;2023-05-23T07:59:48;20.25;;;5.68;;
75261;SDS011;63859;51.064;4.580;2023-05-23T08:02:15;24.58;;;6.10;;
75261;SDS011;63859;51.064;4.580;2023-05-23T08:04:41;17.85;;;6.00;;
75261;SDS011;63859;51.064;4.580;2023-05-23T08:07:07;26.25;;;7.75;;
75261;SDS011;63859;51.064;4.580;2023-05-23T08:09:33;16.40;;;6.50;;
75261;SDS011;63859;51.064;4.580;2023-05-23T08:12:00;20.00;;;6.80;;
75261;SDS011;63859;51.064;4.580;2023-05-23T08:14:25;16.92;;;6.38;;
75261;SDS011;63859;51.064;4.580;2023-05-23T08:16:51;16.83;;;5.82;;
75261;SDS011;63859;51.064;4.580;2023-05-23T08:19:17;20.67;;;6.43;;
75261;SDS011;63859;51.064;4.580;2023-05-23T08:21:43;13.70;;;6.70;;
75261;SDS011;63859;51.064;4.580;2023-05-23T08:24:08;25.92;;;7.03;;
75261;SDS011;63859;51.064;4.580;2023-05-23T08:26:34;21.08;;;6.30;;
75261;SDS011;63859;51.064;4.580;2023-05-23T08:29:01;14.95;;;6.15;;
75261;SDS011;63859;51.064;4.580;2023-05-23T08:31:28;21.60;;;6.28;;
75261;SDS011;63859;51.064;4.580;2023-05-23T08:33:54;28.25;;;7.00;;
75261;SDS011;63859;51.064;4.580;2023-05-23T08:36:19;15.55;;;6.10;;
75261;SDS011;63859;51.064;4.580;2023-05-23T08:38:45;17.58;;;6.35;;
75261;SDS011;63859;51.064;4.580;2023-05-23T08:41:18;16.48;;;6.13;;
75261;SDS011;63859;51.064;4.580;2023-05-23T08:43:45;18.20;;;5.90;;
75261;SDS011;63859;51.064;4.580;2023-05-23T08:46:11;12.57;;;5.30;;
75261;SDS011;63859;51.064;4.580;2023-05-23T08:48:37;15.15;;;5.85;;
75261;SDS011;63859;51.064;4.580;2023-05-23T08:51:04;21.58;;;5.03;;
75261;SDS011;63859;51.064;4.580;2023-05-23T08:53:30;14.40;;;5.10;;
75261;SDS011;63859;51.064;4.580;2023-05-23T08:55:58;11.35;;;5.55;;
75261;SDS011;63859;51.064;4.580;2023-05-23T08:58:31;13.00;;;4.57;;
75261;SDS011;63859;51.064;4.580;2023-05-23T09:00:58;14.52;;;5.13;;
75261;SDS011;63859;51.064;4.580;2023-05-23T09:03:28;14.30;;;5.25;;
75261;SDS011;63859;51.064;4.580;2023-05-23T09:05:54;12.20;;;4.80;;
75261;SDS011;63859;51.064;4.580;2023-05-23T09:08:21;16.75;;;5.55;;
75261;SDS011;63859;51.064;4.580;2023-05-23T09:10:48;15.32;;;5.80;;
75261;SDS011;63859;51.064;4.580;2023-05-23T09:13:15;11.55;;;5.00;;
75261;SDS011;63859;51.064;4.580;2023-05-23T09:18:24;8.48;;;4.43;;
75261;SDS011;63859;51.064;4.580;2023-05-23T09:20:51;12.35;;;4.80;;
75261;SDS011;63859;51.064;4.580;2023-05-23T09:23:16;18.90;;;5.47;;
75261;SDS011;63859;51.064;4.580;2023-05-23T09:25:46;14.30;;;4.80;;
75261;SDS011;63859;51.064;4.580;2023-05-23T09:28:12;21.25;;;5.85;;
75261;SDS011;63859;51.064;4.580;2023-05-23T09:30:38;14.73;;;5.15;;
75261;SDS011;63859;51.064;4.580;2023-05-23T09:33:03;13.35;;;4.15;;
75261;SDS011;63859;51.064;4.580;2023-05-23T09:35:30;13.80;;;4.78;;
75261;SDS011;63859;51.064;4.580;2023-05-23T09:37:56;20.80;;;4.55;;
75261;SDS011;63859;51.064;4.580;2023-05-23T09:40:31;12.95;;;4.75;;
75261;SDS011;63859;51.064;4.580;2023-05-23T09:43:03;14.05;;;5.05;;
75261;SDS011;63859;51.064;4.580;2023-05-23T09:45:30;12.35;;;4.43;;
75261;SDS011;63859;51.064;4.580;2023-05-23T09:47:56;17.65;;;4.85;;
75261;SDS011;63859;51.064;4.580;2023-05-23T09:50:23;14.18;;;4.70;;
75261;SDS011;63859;51.064;4.580;2023-05-23T09:52:50;9.48;;;4.55;;
75261;SDS011;63859;51.064;4.580;2023-05-23T09:55:18;11.07;;;4.53;;
75261;SDS011;63859;51.064;4.580;2023-05-23T09:57:43;13.68;;;4.10;;
75261;SDS011;63859;51.064;4.580;2023-05-23T10:00:14;12.15;;;4.43;;
75261;SDS011;63859;51.064;4.580;2023-05-23T10:03:01;9.52;;;4.00;;
75261;SDS011;63859;51.064;4.580;2023-05-23T10:05:45;14.27;;;4.32;;
75261;SDS011;63859;51.064;4.580;2023-05-23T10:08:35;11.38;;;3.92;;
75261;SDS011;63859;51.064;4.580;2023-05-23T10:13:42;6.20;;;3.65;;
75261;SDS011;63859;51.064;4.580;2023-05-23T10:21:49;8.73;;;3.70;;
75261;SDS011;63859;51.064;4.580;2023-05-23T10:24:18;9.40;;;4.05;;
75261;SDS011;63859;51.064;4.580;2023-05-23T10:26:44;8.75;;;4.20;;
75261;SDS011;63859;51.064;4.580;2023-05-23T10:29:10;9.73;;;3.97;;
75261;SDS011;63859;51.064;4.580;2023-05-23T10:31:36;8.57;;;3.95;;
75261;SDS011;63859;51.064;4.580;2023-05-23T10:37:05;10.35;;;3.97;;
75261;SDS011;63859;51.064;4.580;2023-05-23T10:42:33;9.80;;;4.43;;
75261;SDS011;63859;51.064;4.580;2023-05-23T10:45:21;9.68;;;3.80;;
75261;SDS011;63859;51.064;4.580;2023-05-23T10:47:49;9.63;;;3.63;;
75261;SDS011;63859;51.064;4.580;2023-05-23T10:52:59;10.10;;;3.33;;
75261;SDS011;63859;51.064;4.580;2023-05-23T10:55:30;9.88;;;3.65;;
75261;SDS011;63859;51.064;4.580;2023-05-23T10:58:10;8.65;;;3.67;;
75261;SDS011;63859;51.064;4.580;2023-05-23T11:01:05;11.05;;;3.40;;
75261;SDS011;63859;51.064;4.580;2023-05-23T11:03:37;12.57;;;3.70;;
75261;SDS011;63859;51.064;4.580;2023-05-23T11:11:50;8.68;;;3.28;;
75261;SDS011;63859;51.064;4.580;2023-05-23T11:14:16;9.77;;;2.85;;
75261;SDS011;63859;51.064;4.580;2023-05-23T11:16:43;15.73;;;3.58;;
75261;SDS011;63859;51.064;4.580;2023-05-23T11:21:46;15.52;;;3.95;;
75261;SDS011;63859;51.064;4.580;2023-05-23T11:24:14;10.90;;;3.42;;
75261;SDS011;63859;51.064;4.580;2023-05-23T11:26:50;10.27;;;3.13;;
75261;SDS011;63859;51.064;4.580;2023-05-23T11:29:17;12.57;;;3.40;;
75261;SDS011;63859;51.064;4.580;2023-05-23T11:31:43;12.90;;;3.70;;
75261;SDS011;63859;51.064;4.580;2023-05-23T11:34:09;19.65;;;4.30;;
75261;SDS011;63859;51.064;4.580;2023-05-23T11:36:37;17.80;;;3.88;;
75261;SDS011;63859;51.064;4.580;2023-05-23T11:39:04;12.50;;;3.75;;
75261;SDS011;63859;51.064;4.580;2023-05-23T11:41:30;15.57;;;3.15;;
75261;SDS011;63859;51.064;4.580;2023-05-23T11:43:57;12.93;;;3.88;;
75261;SDS011;63859;51.064;4.580;2023-05-23T11:46:25;13.10;;;3.53;;
75261;SDS011;63859;51.064;4.580;2023-05-23T11:48:51;11.20;;;3.33;;
75261;SDS011;63859;51.064;4.580;2023-05-23T11:51:17;10.70;;;3.88;;
75261;SDS011;63859;51.064;4.580;2023-05-23T11:53:45;15.98;;;3.65;;
75261;SDS011;63859;51.064;4.580;2023-05-23T11:56:11;13.75;;;4.15;;
75261;SDS011;63859;51.064;4.580;2023-05-23T11:58:38;14.00;;;3.53;;
75261;SDS011;63859;51.064;4.580;2023-05-23T12:01:06;14.65;;;3.22;;
75261;SDS011;63859;51.064;4.580;2023-05-23T12:03:34;12.27;;;3.42;;
75261;SDS011;63859;51.064;4.580;2023-05-23T12:06:10;13.60;;;3.42;;
75261;SDS011;63859;51.064;4.580;2023-05-23T12:08:38;15.88;;;4.10;;
75261;SDS011;63859;51.064;4.580;2023-05-23T12:11:04;15.35;;;3.80;;
75261;SDS011;63859;51.064;4.580;2023-05-23T12:13:30;15.10;;;3.70;;
75261;SDS011;63859;51.064;4.580;2023-05-23T12:15:56;15.02;;;3.45;;
75261;SDS011;63859;51.064;4.580;2023-05-23T12:18:24;15.75;;;4.32;;
75261;SDS011;63859;51.064;4.580;2023-05-23T12:20:52;17.67;;;3.97;;
75261;SDS011;63859;51.064;4.580;2023-05-23T12:23:21;16.27;;;4.05;;
75261;SDS011;63859;51.064;4.580;2023-05-23T12:25:51;16.02;;;4.20;;
75261;SDS011;63859;51.064;4.580;2023-05-23T12:28:18;16.98;;;4.40;;
75261;SDS011;63859;51.064;4.580;2023-05-23T12:30:44;14.10;;;3.60;;
75261;SDS011;63859;51.064;4.580;2023-05-23T12:33:10;15.43;;;3.83;;
75261;SDS011;63859;51.064;4.580;2023-05-23T12:35:37;19.33;;;4.78;;
75261;SDS011;63859;51.064;4.580;2023-05-23T12:38:08;16.13;;;3.88;;
75261;SDS011;63859;51.064;4.580;2023-05-23T12:40:34;17.75;;;3.90;;
75261;SDS011;63859;51.064;4.580;2023-05-23T12:43:00;14.13;;;3.92;;
75261;SDS011;63859;51.064;4.580;2023-05-23T12:45:32;22.88;;;3.70;;
75261;SDS011;63859;51.064;4.580;2023-05-23T12:48:00;17.52;;;3.90;;
75261;SDS011;63859;51.064;4.580;2023-05-23T12:50:26;15.05;;;4.40;;
75261;SDS011;63859;51.064;4.580;2023-05-23T12:52:52;16.90;;;4.25;;
75261;SDS011;63859;51.064;4.580;2023-05-23T12:55:18;13.23;;;3.80;;
75261;SDS011;63859;51.064;4.580;2023-05-23T12:57:43;11.50;;;3.35;;
75261;SDS011;63859;51.064;4.580;2023-05-23T13:00:09;12.40;;;4.10;;
75261;SDS011;63859;51.064;4.580;2023-05-23T13:02:35;16.48;;;4.22;;
75261;SDS011;63859;51.064;4.580;2023-05-23T13:05:01;16.73;;;3.60;;
75261;SDS011;63859;51.064;4.580;2023-05-23T13:07:27;17.05;;;3.83;;
75261;SDS011;63859;51.064;4.580;2023-05-23T13:09:53;18.17;;;4.20;;
75261;SDS011;63859;51.064;4.580;2023-05-23T13:12:19;17.38;;;4.03;;
75261;SDS011;63859;51.064;4.580;2023-05-23T13:14:45;15.80;;;3.63;;
75261;SDS011;63859;51.064;4.580;2023-05-23T13:17:10;15.63;;;4.00;;
75261;SDS011;63859;51.064;4.580;2023-05-23T13:19:36;13.38;;;3.78;;
75261;SDS011;63859;51.064;4.580;2023-05-23T13:22:04;15.93;;;3.42;;
75261;SDS011;63859;51.064;4.580;2023-05-23T13:24:34;13.30;;;3.70;;
75261;SDS011;63859;51.064;4.580;2023-05-23T13:27:04;12.35;;;3.72;;
75261;SDS011;63859;51.064;4.580;2023-05-23T13:29:30;19.63;;;4.25;;
75261;SDS011;63859;51.064;4.580;2023-05-23T13:31:57;22.00;;;4.38;;
75261;SDS011;63859;51.064;4.580;2023-05-23T13:34:23;11.45;;;3.45;;
75261;SDS011;63859;51.064;4.580;2023-05-23T13:36:49;17.42;;;3.65;;
75261;SDS011;63859;51.064;4.580;2023-05-23T13:39:15;13.63;;;3.70;;
75261;SDS011;63859;51.064;4.580;2023-05-23T13:41:40;11.00;;;3.78;;
75261;SDS011;63859;51.064;4.580;2023-05-23T13:44:06;14.63;;;3.75;;
75261;SDS011;63859;51.064;4.580;2023-05-23T13:46:32;16.95;;;4.13;;
75261;SDS011;63859;51.064;4.580;2023-05-23T13:48:57;10.30;;;3.80;;
75261;SDS011;63859;51.064;4.580;2023-05-23T13:51:23;19.02;;;3.75;;
75261;SDS011;63859;51.064;4.580;2023-05-23T13:53:49;12.43;;;3.60;;
75261;SDS011;63859;51.064;4.580;2023-05-23T13:56:14;15.70;;;3.50;;
75261;SDS011;63859;51.064;4.580;2023-05-23T13:58:40;22.15;;;4.03;;
75261;SDS011;63859;51.064;4.580;2023-05-23T14:01:10;13.52;;;3.33;;
75261;SDS011;63859;51.064;4.580;2023-05-23T14:03:36;12.65;;;3.42;;
75261;SDS011;63859;51.064;4.580;2023-05-23T14:06:02;10.88;;;3.38;;
75261;SDS011;63859;51.064;4.580;2023-05-23T14:08:29;16.50;;;3.75;;
75261;SDS011;63859;51.064;4.580;2023-05-23T14:10:55;19.13;;;4.13;;
75261;SDS011;63859;51.064;4.580;2023-05-23T14:13:21;18.08;;;3.80;;
75261;SDS011;63859;51.064;4.580;2023-05-23T14:15:48;17.02;;;3.63;;
75261;SDS011;63859;51.064;4.580;2023-05-23T14:18:14;12.50;;;3.42;;
75261;SDS011;63859;51.064;4.580;2023-05-23T14:20:40;13.95;;;3.40;;
75261;SDS011;63859;51.064;4.580;2023-05-23T14:23:06;14.57;;;3.60;;
75261;SDS011;63859;51.064;4.580;2023-05-23T14:25:31;16.30;;;3.92;;
75261;SDS011;63859;51.064;4.580;2023-05-23T14:27:57;13.48;;;3.90;;
75261;SDS011;63859;51.064;4.580;2023-05-23T14:30:23;12.32;;;3.28;;
75261;SDS011;63859;51.064;4.580;2023-05-23T14:32:48;12.43;;;3.10;;
75261;SDS011;63859;51.064;4.580;2023-05-23T14:35:14;12.25;;;3.15;;
75261;SDS011;63859;51.064;4.580;2023-05-23T14:37:41;16.48;;;3.55;;
75261;SDS011;63859;51.064;4.580;2023-05-23T14:40:07;16.70;;;3.80;;
75261;SDS011;63859;51.064;4.580;2023-05-23T14:42:36;18.50;;;3.50;;
75261;SDS011;63859;51.064;4.580;2023-05-23T14:45:02;16.65;;;3.70;;
75261;SDS011;63859;51.064;4.580;2023-05-23T14:47:29;9.98;;;2.75;;
75261;SDS011;63859;51.064;4.580;2023-05-23T14:49:55;14.32;;;3.38;;
75261;SDS011;63859;51.064;4.580;2023-05-23T14:52:21;13.70;;;2.88;;
75261;SDS011;63859;51.064;4.580;2023-05-23T14:54:47;12.75;;;3.40;;
75261;SDS011;63859;51.064;4.580;2023-05-23T14:57:13;16.95;;;3.33;;
75261;SDS011;63859;51.064;4.580;2023-05-23T14:59:38;15.80;;;3.78;;
75261;SDS011;63859;51.064;4.580;2023-05-23T15:02:04;18.65;;;3.38;;
75261;SDS011;63859;51.064;4.580;2023-05-23T15:04:32;13.38;;;3.60;;
75261;SDS011;63859;51.064;4.580;2023-05-23T15:06:57;12.35;;;3.13;;
75261;SDS011;63859;51.064;4.580;2023-05-23T15:09:24;12.00;;;3.40;;